sensor_id;sensor_type;location;lat;lon;timestamp;P1;durP1;ratioP1;P2;durP2;ratioP2
7074;SDS011;3578;51.568;6.932;2023-01-23T00:00:24;19.30;;;17.13;;
7074;SDS011;3578;51.568;6.932;2023-01-23T00:02:51;21.90;;;18.03;;
7074;SDS011;3578;51.568;6.932;2023-01-23T00:05:19;18.93;;;17.07;;
7074;SDS011;3578;51.568;6.932;2023-01-23T00:07:47;42.07;;;19.20;;
7074;SDS011;3578;51.568;6.932;2023-01-23T00:10:14;18.67;;;16.70;;
7074;SDS011;3578;51.568;6.932;2023-01-23T00:12:43;19.97;;;16.90;;
7074;SDS011;3578;51.568;6.932;2023-01-23T00:15:13;19.23;;;16.90;;
7074;SDS011;3578;51.568;6.932;2023-01-23T00:17:42;23.60;;;17.77;;
7074;SDS011;3578;51.568;6.932;2023-01-23T00:20:10;22.17;;;16.80;;
7074;SDS011;3578;51.568;6.932;2023-01-23T00:22:39;19.80;;;17.10;;
7074;SDS011;3578;51.568;6.932;2023-01-23T00:25:07;18.70;;;15.80;;
7074;SDS011;3578;51.568;6.932;2023-01-23T00:27:34;17.27;;;15.57;;
7074;SDS011;3578;51.568;6.932;2023-01-23T00:30:01;18.50;;;16.60;;
7074;SDS011;3578;51.568;6.932;2023-01-23T00:32:29;22.27;;;17.00;;
7074;SDS011;3578;51.568;6.932;2023-01-23T00:34:58;20.93;;;16.50;;
7074;SDS011;3578;51.568;6.932;2023-01-23T00:37:27;19.40;;;17.27;;
7074;SDS011;3578;51.568;6.932;2023-01-23T00:39:54;21.47;;;18.07;;
7074;SDS011;3578;51.568;6.932;2023-01-23T00:42:22;20.17;;;17.87;;
7074;SDS011;3578;51.568;6.932;2023-01-23T00:44:49;21.57;;;17.30;;
7074;SDS011;3578;51.568;6.932;2023-01-23T00:47:17;18.53;;;16.13;;
7074;SDS011;3578;51.568;6.932;2023-01-23T00:49:45;19.00;;;16.97;;
7074;SDS011;3578;51.568;6.932;2023-01-23T00:52:14;18.23;;;16.17;;
7074;SDS011;3578;51.568;6.932;2023-01-23T00:54:41;21.17;;;16.60;;
7074;SDS011;3578;51.568;6.932;2023-01-23T00:57:08;19.37;;;16.97;;
7074;SDS011;3578;51.568;6.932;2023-01-23T00:59:35;17.37;;;15.57;;
7074;SDS011;3578;51.568;6.932;2023-01-23T01:02:02;20.57;;;16.90;;
7074;SDS011;3578;51.568;6.932;2023-01-23T01:04:30;18.57;;;16.57;;
7074;SDS011;3578;51.568;6.932;2023-01-23T01:06:57;18.00;;;16.17;;
7074;SDS011;3578;51.568;6.932;2023-01-23T01:09:25;19.90;;;17.30;;
7074;SDS011;3578;51.568;6.932;2023-01-23T01:11:52;18.40;;;16.50;;
7074;SDS011;3578;51.568;6.932;2023-01-23T01:14:19;19.73;;;17.20;;
7074;SDS011;3578;51.568;6.932;2023-01-23T01:16:46;19.17;;;17.17;;
7074;SDS011;3578;51.568;6.932;2023-01-23T01:19:14;18.70;;;16.80;;
7074;SDS011;3578;51.568;6.932;2023-01-23T01:21:43;18.50;;;16.60;;
7074;SDS011;3578;51.568;6.932;2023-01-23T01:24:10;17.90;;;16.00;;
7074;SDS011;3578;51.568;6.932;2023-01-23T01:26:38;18.87;;;16.20;;
7074;SDS011;3578;51.568;6.932;2023-01-23T01:29:05;20.30;;;17.63;;
7074;SDS011;3578;51.568;6.932;2023-01-23T01:31:32;22.60;;;19.70;;
7074;SDS011;3578;51.568;6.932;2023-01-23T01:33:59;29.20;;;17.90;;
7074;SDS011;3578;51.568;6.932;2023-01-23T01:36:26;20.03;;;17.30;;
7074;SDS011;3578;51.568;6.932;2023-01-23T01:38:53;20.07;;;17.97;;
7074;SDS011;3578;51.568;6.932;2023-01-23T01:41:20;19.37;;;17.40;;
7074;SDS011;3578;51.568;6.932;2023-01-23T01:43:49;19.73;;;17.83;;
7074;SDS011;3578;51.568;6.932;2023-01-23T01:46:18;23.53;;;18.83;;
7074;SDS011;3578;51.568;6.932;2023-01-23T01:48:49;18.90;;;16.90;;
7074;SDS011;3578;51.568;6.932;2023-01-23T01:51:31;19.23;;;17.13;;
7074;SDS011;3578;51.568;6.932;2023-01-23T01:54:04;17.90;;;16.10;;
7074;SDS011;3578;51.568;6.932;2023-01-23T01:56:38;19.73;;;17.70;;
7074;SDS011;3578;51.568;6.932;2023-01-23T01:59:12;19.57;;;17.43;;
7074;SDS011;3578;51.568;6.932;2023-01-23T02:01:41;23.93;;;17.83;;
7074;SDS011;3578;51.568;6.932;2023-01-23T02:04:11;22.60;;;18.03;;
7074;SDS011;3578;51.568;6.932;2023-01-23T02:06:39;29.13;;;18.03;;
7074;SDS011;3578;51.568;6.932;2023-01-23T02:09:07;20.57;;;16.60;;
7074;SDS011;3578;51.568;6.932;2023-01-23T02:11:42;23.03;;;18.33;;
7074;SDS011;3578;51.568;6.932;2023-01-23T02:14:09;19.47;;;17.40;;
7074;SDS011;3578;51.568;6.932;2023-01-23T02:16:39;20.97;;;16.63;;
7074;SDS011;3578;51.568;6.932;2023-01-23T02:19:11;43.87;;;18.33;;
7074;SDS011;3578;51.568;6.932;2023-01-23T02:21:53;23.47;;;16.43;;
7074;SDS011;3578;51.568;6.932;2023-01-23T02:24:32;28.03;;;17.27;;
7074;SDS011;3578;51.568;6.932;2023-01-23T02:27:06;18.87;;;16.87;;
7074;SDS011;3578;51.568;6.932;2023-01-23T02:29:43;17.83;;;15.93;;
7074;SDS011;3578;51.568;6.932;2023-01-23T02:32:12;19.53;;;16.30;;
7074;SDS011;3578;51.568;6.932;2023-01-23T02:34:39;21.17;;;16.57;;
7074;SDS011;3578;51.568;6.932;2023-01-23T02:37:07;23.23;;;17.03;;
7074;SDS011;3578;51.568;6.932;2023-01-23T02:39:35;26.70;;;18.00;;
7074;SDS011;3578;51.568;6.932;2023-01-23T02:42:03;25.43;;;15.70;;
7074;SDS011;3578;51.568;6.932;2023-01-23T02:44:33;22.83;;;17.20;;
7074;SDS011;3578;51.568;6.932;2023-01-23T02:47:01;21.30;;;15.70;;
7074;SDS011;3578;51.568;6.932;2023-01-23T02:49:32;17.13;;;14.97;;
7074;SDS011;3578;51.568;6.932;2023-01-23T02:51:59;18.50;;;16.60;;
7074;SDS011;3578;51.568;6.932;2023-01-23T02:54:27;19.00;;;17.00;;
7074;SDS011;3578;51.568;6.932;2023-01-23T02:56:54;17.37;;;15.67;;
7074;SDS011;3578;51.568;6.932;2023-01-23T02:59:23;18.27;;;16.47;;
7074;SDS011;3578;51.568;6.932;2023-01-23T03:02:08;19.23;;;17.10;;
7074;SDS011;3578;51.568;6.932;2023-01-23T03:04:36;18.27;;;16.37;;
7074;SDS011;3578;51.568;6.932;2023-01-23T03:07:03;17.37;;;15.60;;
7074;SDS011;3578;51.568;6.932;2023-01-23T03:09:29;19.63;;;17.63;;
7074;SDS011;3578;51.568;6.932;2023-01-23T03:11:57;20.00;;;18.03;;
7074;SDS011;3578;51.568;6.932;2023-01-23T03:14:26;29.83;;;18.53;;
7074;SDS011;3578;51.568;6.932;2023-01-23T03:16:54;20.80;;;18.40;;
7074;SDS011;3578;51.568;6.932;2023-01-23T03:19:21;20.43;;;18.30;;
7074;SDS011;3578;51.568;6.932;2023-01-23T03:21:50;18.90;;;16.97;;
7074;SDS011;3578;51.568;6.932;2023-01-23T03:24:18;20.23;;;18.03;;
7074;SDS011;3578;51.568;6.932;2023-01-23T03:26:46;24.97;;;18.93;;
7074;SDS011;3578;51.568;6.932;2023-01-23T03:29:15;19.57;;;17.50;;
7074;SDS011;3578;51.568;6.932;2023-01-23T03:32:04;24.10;;;19.20;;
7074;SDS011;3578;51.568;6.932;2023-01-23T03:34:32;23.50;;;18.67;;
7074;SDS011;3578;51.568;6.932;2023-01-23T03:36:59;24.33;;;18.07;;
7074;SDS011;3578;51.568;6.932;2023-01-23T03:39:27;20.63;;;18.20;;
7074;SDS011;3578;51.568;6.932;2023-01-23T03:42:12;20.00;;;17.10;;
7074;SDS011;3578;51.568;6.932;2023-01-23T03:44:39;20.63;;;17.57;;
7074;SDS011;3578;51.568;6.932;2023-01-23T03:47:08;19.43;;;17.43;;
7074;SDS011;3578;51.568;6.932;2023-01-23T03:49:35;26.93;;;17.70;;
7074;SDS011;3578;51.568;6.932;2023-01-23T03:52:02;19.30;;;17.20;;
7074;SDS011;3578;51.568;6.932;2023-01-23T03:54:30;17.70;;;15.80;;
7074;SDS011;3578;51.568;6.932;2023-01-23T03:56:57;19.20;;;17.20;;
7074;SDS011;3578;51.568;6.932;2023-01-23T03:59:24;18.90;;;15.97;;
7074;SDS011;3578;51.568;6.932;2023-01-23T04:01:51;19.27;;;15.67;;
7074;SDS011;3578;51.568;6.932;2023-01-23T04:04:19;18.23;;;16.33;;
7074;SDS011;3578;51.568;6.932;2023-01-23T04:06:46;19.23;;;17.23;;
7074;SDS011;3578;51.568;6.932;2023-01-23T04:09:13;18.53;;;16.63;;
7074;SDS011;3578;51.568;6.932;2023-01-23T04:11:40;17.60;;;15.90;;
7074;SDS011;3578;51.568;6.932;2023-01-23T04:14:07;18.90;;;17.00;;
7074;SDS011;3578;51.568;6.932;2023-01-23T04:16:34;18.27;;;16.33;;
7074;SDS011;3578;51.568;6.932;2023-01-23T04:19:01;17.30;;;15.50;;
7074;SDS011;3578;51.568;6.932;2023-01-23T04:21:29;17.40;;;15.60;;
7074;SDS011;3578;51.568;6.932;2023-01-23T04:23:56;18.67;;;16.77;;
7074;SDS011;3578;51.568;6.932;2023-01-23T04:26:23;18.93;;;16.60;;
7074;SDS011;3578;51.568;6.932;2023-01-23T04:28:51;17.57;;;15.77;;
7074;SDS011;3578;51.568;6.932;2023-01-23T04:31:18;19.43;;;17.37;;
7074;SDS011;3578;51.568;6.932;2023-01-23T04:33:45;18.27;;;15.77;;
7074;SDS011;3578;51.568;6.932;2023-01-23T04:36:12;19.83;;;16.83;;
7074;SDS011;3578;51.568;6.932;2023-01-23T04:38:40;19.47;;;17.37;;
7074;SDS011;3578;51.568;6.932;2023-01-23T04:41:08;18.20;;;16.30;;
7074;SDS011;3578;51.568;6.932;2023-01-23T04:43:46;17.70;;;15.90;;
7074;SDS011;3578;51.568;6.932;2023-01-23T04:46:14;17.87;;;16.10;;
7074;SDS011;3578;51.568;6.932;2023-01-23T04:48:41;17.80;;;16.00;;
7074;SDS011;3578;51.568;6.932;2023-01-23T04:51:08;17.43;;;15.73;;
7074;SDS011;3578;51.568;6.932;2023-01-23T04:53:35;16.73;;;14.93;;
7074;SDS011;3578;51.568;6.932;2023-01-23T04:56:04;22.00;;;17.13;;
7074;SDS011;3578;51.568;6.932;2023-01-23T04:58:31;17.83;;;16.03;;
7074;SDS011;3578;51.568;6.932;2023-01-23T05:01:01;18.13;;;16.03;;
7074;SDS011;3578;51.568;6.932;2023-01-23T05:03:29;17.97;;;16.10;;
7074;SDS011;3578;51.568;6.932;2023-01-23T05:05:56;18.30;;;16.40;;
7074;SDS011;3578;51.568;6.932;2023-01-23T05:08:23;18.47;;;16.47;;
7074;SDS011;3578;51.568;6.932;2023-01-23T05:10:50;18.80;;;16.90;;
7074;SDS011;3578;51.568;6.932;2023-01-23T05:13:19;22.90;;;17.53;;
7074;SDS011;3578;51.568;6.932;2023-01-23T05:15:45;18.60;;;16.60;;
7074;SDS011;3578;51.568;6.932;2023-01-23T05:18:12;20.00;;;16.43;;
7074;SDS011;3578;51.568;6.932;2023-01-23T05:20:39;19.80;;;17.70;;
7074;SDS011;3578;51.568;6.932;2023-01-23T05:23:06;18.83;;;16.80;;
7074;SDS011;3578;51.568;6.932;2023-01-23T05:25:33;26.00;;;17.87;;
7074;SDS011;3578;51.568;6.932;2023-01-23T05:28:00;23.27;;;18.90;;
7074;SDS011;3578;51.568;6.932;2023-01-23T05:30:29;18.43;;;16.53;;
7074;SDS011;3578;51.568;6.932;2023-01-23T05:32:55;18.07;;;16.27;;
7074;SDS011;3578;51.568;6.932;2023-01-23T05:35:22;22.03;;;16.03;;
7074;SDS011;3578;51.568;6.932;2023-01-23T05:37:50;20.93;;;17.07;;
7074;SDS011;3578;51.568;6.932;2023-01-23T05:40:18;20.50;;;18.23;;
7074;SDS011;3578;51.568;6.932;2023-01-23T05:42:46;23.80;;;17.60;;
7074;SDS011;3578;51.568;6.932;2023-01-23T05:45:13;38.00;;;20.33;;
7074;SDS011;3578;51.568;6.932;2023-01-23T05:47:42;22.10;;;18.50;;
7074;SDS011;3578;51.568;6.932;2023-01-23T05:50:12;20.53;;;17.90;;
7074;SDS011;3578;51.568;6.932;2023-01-23T05:52:41;22.60;;;19.40;;
7074;SDS011;3578;51.568;6.932;2023-01-23T05:55:08;19.70;;;17.60;;
7074;SDS011;3578;51.568;6.932;2023-01-23T05:57:35;22.47;;;20.07;;
7074;SDS011;3578;51.568;6.932;2023-01-23T06:00:02;22.80;;;18.83;;
7074;SDS011;3578;51.568;6.932;2023-01-23T06:02:30;21.40;;;19.13;;
7074;SDS011;3578;51.568;6.932;2023-01-23T06:05:00;19.77;;;17.23;;
7074;SDS011;3578;51.568;6.932;2023-01-23T06:07:27;19.53;;;17.43;;
7074;SDS011;3578;51.568;6.932;2023-01-23T06:09:54;20.47;;;17.23;;
7074;SDS011;3578;51.568;6.932;2023-01-23T06:12:21;19.30;;;17.10;;
7074;SDS011;3578;51.568;6.932;2023-01-23T06:14:48;21.70;;;17.10;;
7074;SDS011;3578;51.568;6.932;2023-01-23T06:17:15;25.00;;;18.43;;
7074;SDS011;3578;51.568;6.932;2023-01-23T06:19:43;28.87;;;18.10;;
7074;SDS011;3578;51.568;6.932;2023-01-23T06:22:11;18.77;;;16.90;;
7074;SDS011;3578;51.568;6.932;2023-01-23T06:24:38;19.37;;;16.73;;
7074;SDS011;3578;51.568;6.932;2023-01-23T06:27:05;21.37;;;16.23;;
7074;SDS011;3578;51.568;6.932;2023-01-23T06:29:32;19.13;;;17.13;;
7074;SDS011;3578;51.568;6.932;2023-01-23T06:31:59;22.27;;;17.73;;
7074;SDS011;3578;51.568;6.932;2023-01-23T06:34:27;19.77;;;17.67;;
7074;SDS011;3578;51.568;6.932;2023-01-23T06:36:54;19.77;;;17.63;;
7074;SDS011;3578;51.568;6.932;2023-01-23T06:39:22;20.87;;;18.27;;
7074;SDS011;3578;51.568;6.932;2023-01-23T06:41:49;21.97;;;17.97;;
7074;SDS011;3578;51.568;6.932;2023-01-23T06:44:16;20.57;;;17.97;;
7074;SDS011;3578;51.568;6.932;2023-01-23T06:46:43;24.53;;;18.40;;
7074;SDS011;3578;51.568;6.932;2023-01-23T06:49:10;21.17;;;18.07;;
7074;SDS011;3578;51.568;6.932;2023-01-23T06:51:37;20.83;;;17.13;;
7074;SDS011;3578;51.568;6.932;2023-01-23T06:54:04;21.63;;;17.17;;
7074;SDS011;3578;51.568;6.932;2023-01-23T06:56:33;20.40;;;18.17;;
7074;SDS011;3578;51.568;6.932;2023-01-23T06:59:00;21.87;;;17.60;;
7074;SDS011;3578;51.568;6.932;2023-01-23T07:01:27;21.97;;;17.30;;
7074;SDS011;3578;51.568;6.932;2023-01-23T07:03:54;20.23;;;16.90;;
7074;SDS011;3578;51.568;6.932;2023-01-23T07:06:21;21.40;;;18.60;;
7074;SDS011;3578;51.568;6.932;2023-01-23T07:08:48;19.30;;;16.50;;
7074;SDS011;3578;51.568;6.932;2023-01-23T07:11:15;24.20;;;18.03;;
7074;SDS011;3578;51.568;6.932;2023-01-23T07:13:43;18.70;;;16.37;;
7074;SDS011;3578;51.568;6.932;2023-01-23T07:16:10;26.47;;;18.33;;
7074;SDS011;3578;51.568;6.932;2023-01-23T07:18:37;20.10;;;16.17;;
7074;SDS011;3578;51.568;6.932;2023-01-23T07:21:04;19.83;;;17.73;;
7074;SDS011;3578;51.568;6.932;2023-01-23T07:23:31;17.87;;;15.97;;
7074;SDS011;3578;51.568;6.932;2023-01-23T07:25:59;27.43;;;15.77;;
7074;SDS011;3578;51.568;6.932;2023-01-23T07:28:27;16.77;;;14.87;;
7074;SDS011;3578;51.568;6.932;2023-01-23T07:30:57;35.77;;;16.60;;
7074;SDS011;3578;51.568;6.932;2023-01-23T07:33:24;15.93;;;13.80;;
7074;SDS011;3578;51.568;6.932;2023-01-23T07:35:51;16.37;;;14.57;;
7074;SDS011;3578;51.568;6.932;2023-01-23T07:38:18;18.60;;;14.90;;
7074;SDS011;3578;51.568;6.932;2023-01-23T07:40:47;15.20;;;13.60;;
7074;SDS011;3578;51.568;6.932;2023-01-23T07:43:14;17.57;;;14.83;;
7074;SDS011;3578;51.568;6.932;2023-01-23T07:45:41;17.93;;;15.00;;
7074;SDS011;3578;51.568;6.932;2023-01-23T07:48:10;19.63;;;15.50;;
7074;SDS011;3578;51.568;6.932;2023-01-23T07:50:37;15.87;;;13.27;;
7074;SDS011;3578;51.568;6.932;2023-01-23T07:53:04;22.20;;;15.40;;
7074;SDS011;3578;51.568;6.932;2023-01-23T07:55:31;16.63;;;14.67;;
7074;SDS011;3578;51.568;6.932;2023-01-23T07:57:59;19.30;;;15.20;;
7074;SDS011;3578;51.568;6.932;2023-01-23T08:00:26;21.60;;;14.93;;
7074;SDS011;3578;51.568;6.932;2023-01-23T08:02:53;26.73;;;15.67;;
7074;SDS011;3578;51.568;6.932;2023-01-23T08:05:22;20.30;;;15.30;;
7074;SDS011;3578;51.568;6.932;2023-01-23T08:07:49;18.10;;;14.20;;
7074;SDS011;3578;51.568;6.932;2023-01-23T08:10:16;19.13;;;16.87;;
7074;SDS011;3578;51.568;6.932;2023-01-23T08:12:43;25.40;;;16.23;;
7074;SDS011;3578;51.568;6.932;2023-01-23T08:15:10;30.83;;;17.73;;
7074;SDS011;3578;51.568;6.932;2023-01-23T08:17:37;24.77;;;15.57;;
7074;SDS011;3578;51.568;6.932;2023-01-23T08:20:06;22.00;;;16.30;;
7074;SDS011;3578;51.568;6.932;2023-01-23T08:22:36;36.07;;;15.87;;
7074;SDS011;3578;51.568;6.932;2023-01-23T08:25:05;23.60;;;14.87;;
7074;SDS011;3578;51.568;6.932;2023-01-23T08:27:34;15.10;;;13.50;;
7074;SDS011;3578;51.568;6.932;2023-01-23T08:30:02;16.87;;;14.40;;
7074;SDS011;3578;51.568;6.932;2023-01-23T08:32:33;15.77;;;14.10;;
7074;SDS011;3578;51.568;6.932;2023-01-23T08:35:01;20.50;;;15.50;;
7074;SDS011;3578;51.568;6.932;2023-01-23T08:37:28;17.43;;;15.40;;
7074;SDS011;3578;51.568;6.932;2023-01-23T08:39:59;20.90;;;16.47;;
7074;SDS011;3578;51.568;6.932;2023-01-23T08:42:26;17.97;;;14.83;;
7074;SDS011;3578;51.568;6.932;2023-01-23T08:44:53;19.17;;;15.03;;
7074;SDS011;3578;51.568;6.932;2023-01-23T08:47:20;26.50;;;15.67;;
7074;SDS011;3578;51.568;6.932;2023-01-23T08:49:47;20.17;;;15.67;;
7074;SDS011;3578;51.568;6.932;2023-01-23T08:52:14;20.00;;;17.20;;
7074;SDS011;3578;51.568;6.932;2023-01-23T08:54:41;20.33;;;16.83;;
7074;SDS011;3578;51.568;6.932;2023-01-23T08:57:10;19.10;;;16.20;;
7074;SDS011;3578;51.568;6.932;2023-01-23T08:59:37;20.43;;;16.93;;
7074;SDS011;3578;51.568;6.932;2023-01-23T09:02:08;19.47;;;17.47;;
7074;SDS011;3578;51.568;6.932;2023-01-23T09:04:37;22.33;;;18.03;;
7074;SDS011;3578;51.568;6.932;2023-01-23T09:07:04;18.17;;;16.20;;
7074;SDS011;3578;51.568;6.932;2023-01-23T09:09:31;18.90;;;17.00;;
7074;SDS011;3578;51.568;6.932;2023-01-23T09:11:58;20.17;;;17.20;;
7074;SDS011;3578;51.568;6.932;2023-01-23T09:14:26;20.37;;;16.30;;
7074;SDS011;3578;51.568;6.932;2023-01-23T09:16:53;18.23;;;15.77;;
7074;SDS011;3578;51.568;6.932;2023-01-23T09:19:30;20.33;;;18.17;;
7074;SDS011;3578;51.568;6.932;2023-01-23T09:21:58;19.93;;;17.63;;
7074;SDS011;3578;51.568;6.932;2023-01-23T09:24:27;19.70;;;16.90;;
7074;SDS011;3578;51.568;6.932;2023-01-23T09:26:54;19.40;;;17.27;;
7074;SDS011;3578;51.568;6.932;2023-01-23T09:29:22;21.17;;;17.90;;
7074;SDS011;3578;51.568;6.932;2023-01-23T09:31:51;19.67;;;17.57;;
7074;SDS011;3578;51.568;6.932;2023-01-23T09:34:19;21.47;;;18.00;;
7074;SDS011;3578;51.568;6.932;2023-01-23T09:36:46;20.83;;;17.60;;
7074;SDS011;3578;51.568;6.932;2023-01-23T09:39:13;27.00;;;18.23;;
7074;SDS011;3578;51.568;6.932;2023-01-23T09:41:40;18.93;;;16.90;;
7074;SDS011;3578;51.568;6.932;2023-01-23T09:44:11;20.20;;;17.63;;
7074;SDS011;3578;51.568;6.932;2023-01-23T09:46:46;19.27;;;14.90;;
7074;SDS011;3578;51.568;6.932;2023-01-23T09:49:19;18.67;;;16.03;;
7074;SDS011;3578;51.568;6.932;2023-01-23T09:51:55;23.10;;;15.70;;
7074;SDS011;3578;51.568;6.932;2023-01-23T09:54:28;17.80;;;15.80;;
7074;SDS011;3578;51.568;6.932;2023-01-23T09:57:10;17.40;;;15.60;;
7074;SDS011;3578;51.568;6.932;2023-01-23T09:59:42;16.70;;;13.10;;
7074;SDS011;3578;51.568;6.932;2023-01-23T10:02:15;12.17;;;10.57;;
7074;SDS011;3578;51.568;6.932;2023-01-23T10:04:46;12.23;;;10.60;;
7074;SDS011;3578;51.568;6.932;2023-01-23T10:07:26;10.97;;;10.00;;
7074;SDS011;3578;51.568;6.932;2023-01-23T10:10:20;28.43;;;11.10;;
7074;SDS011;3578;51.568;6.932;2023-01-23T10:13:14;15.07;;;9.63;;
7074;SDS011;3578;51.568;6.932;2023-01-23T10:15:53;11.50;;;9.53;;
7074;SDS011;3578;51.568;6.932;2023-01-23T10:18:55;10.30;;;9.40;;
7074;SDS011;3578;51.568;6.932;2023-01-23T10:21:35;10.20;;;9.30;;
7074;SDS011;3578;51.568;6.932;2023-01-23T10:24:16;12.50;;;11.23;;
7074;SDS011;3578;51.568;6.932;2023-01-23T10:26:59;17.43;;;10.83;;
7074;SDS011;3578;51.568;6.932;2023-01-23T10:29:40;14.53;;;10.60;;
7074;SDS011;3578;51.568;6.932;2023-01-23T10:32:15;16.83;;;9.90;;
7074;SDS011;3578;51.568;6.932;2023-01-23T10:34:52;11.80;;;10.33;;
7074;SDS011;3578;51.568;6.932;2023-01-23T10:37:35;12.20;;;10.87;;
7074;SDS011;3578;51.568;6.932;2023-01-23T10:40:10;12.57;;;11.17;;
7074;SDS011;3578;51.568;6.932;2023-01-23T10:42:41;11.60;;;10.50;;
7074;SDS011;3578;51.568;6.932;2023-01-23T10:45:12;10.83;;;9.70;;
7074;SDS011;3578;51.568;6.932;2023-01-23T10:47:45;10.67;;;9.70;;
7074;SDS011;3578;51.568;6.932;2023-01-23T10:50:14;11.10;;;9.70;;
7074;SDS011;3578;51.568;6.932;2023-01-23T10:52:45;11.37;;;9.70;;
7074;SDS011;3578;51.568;6.932;2023-01-23T10:55:26;12.53;;;11.20;;
7074;SDS011;3578;51.568;6.932;2023-01-23T10:57:56;11.20;;;10.13;;
7074;SDS011;3578;51.568;6.932;2023-01-23T11:00:28;11.13;;;10.03;;
7074;SDS011;3578;51.568;6.932;2023-01-23T11:05:53;10.53;;;9.17;;
7074;SDS011;3578;51.568;6.932;2023-01-23T11:08:24;10.53;;;9.63;;
7074;SDS011;3578;51.568;6.932;2023-01-23T11:10:57;10.00;;;9.07;;
7074;SDS011;3578;51.568;6.932;2023-01-23T11:14:00;10.77;;;9.77;;
7074;SDS011;3578;51.568;6.932;2023-01-23T11:16:32;11.00;;;10.00;;
7074;SDS011;3578;51.568;6.932;2023-01-23T11:19:04;11.80;;;9.20;;
7074;SDS011;3578;51.568;6.932;2023-01-23T11:21:53;10.83;;;9.57;;
7074;SDS011;3578;51.568;6.932;2023-01-23T11:24:27;9.20;;;8.50;;
7074;SDS011;3578;51.568;6.932;2023-01-23T11:26:59;13.50;;;9.53;;
7074;SDS011;3578;51.568;6.932;2023-01-23T11:29:29;8.80;;;8.00;;
7074;SDS011;3578;51.568;6.932;2023-01-23T11:32:18;9.90;;;9.00;;
7074;SDS011;3578;51.568;6.932;2023-01-23T11:34:48;11.40;;;8.77;;
7074;SDS011;3578;51.568;6.932;2023-01-23T11:37:19;11.07;;;9.97;;
7074;SDS011;3578;51.568;6.932;2023-01-23T11:39:53;10.60;;;9.60;;
7074;SDS011;3578;51.568;6.932;2023-01-23T11:42:25;10.83;;;9.80;;
7074;SDS011;3578;51.568;6.932;2023-01-23T11:44:53;10.53;;;9.43;;
7074;SDS011;3578;51.568;6.932;2023-01-23T11:47:37;15.70;;;10.43;;
7074;SDS011;3578;51.568;6.932;2023-01-23T11:50:35;11.50;;;9.90;;
7074;SDS011;3578;51.568;6.932;2023-01-23T11:53:14;11.10;;;10.00;;
7074;SDS011;3578;51.568;6.932;2023-01-23T11:59:06;14.23;;;12.93;;
7074;SDS011;3578;51.568;6.932;2023-01-23T12:02:07;14.47;;;12.97;;
7074;SDS011;3578;51.568;6.932;2023-01-23T12:05:31;14.43;;;13.03;;
7074;SDS011;3578;51.568;6.932;2023-01-23T12:08:32;15.50;;;14.00;;
7074;SDS011;3578;51.568;6.932;2023-01-23T12:11:08;13.53;;;12.27;;
7074;SDS011;3578;51.568;6.932;2023-01-23T12:13:51;14.37;;;13.03;;
7074;SDS011;3578;51.568;6.932;2023-01-23T12:16:49;15.70;;;14.17;;
7074;SDS011;3578;51.568;6.932;2023-01-23T12:19:41;15.70;;;13.43;;
7074;SDS011;3578;51.568;6.932;2023-01-23T12:22:27;14.47;;;13.10;;
7074;SDS011;3578;51.568;6.932;2023-01-23T12:25:13;15.40;;;13.13;;
7074;SDS011;3578;51.568;6.932;2023-01-23T12:27:55;14.10;;;12.80;;
7074;SDS011;3578;51.568;6.932;2023-01-23T12:30:41;13.63;;;12.17;;
7074;SDS011;3578;51.568;6.932;2023-01-23T12:33:34;15.67;;;12.80;;
7074;SDS011;3578;51.568;6.932;2023-01-23T12:36:14;12.60;;;11.40;;
7074;SDS011;3578;51.568;6.932;2023-01-23T12:39:01;12.97;;;11.60;;
7074;SDS011;3578;51.568;6.932;2023-01-23T12:41:39;17.17;;;11.20;;
7074;SDS011;3578;51.568;6.932;2023-01-23T12:44:12;12.93;;;11.70;;
7074;SDS011;3578;51.568;6.932;2023-01-23T12:46:49;11.70;;;10.23;;
7074;SDS011;3578;51.568;6.932;2023-01-23T12:49:23;20.43;;;11.43;;
7074;SDS011;3578;51.568;6.932;2023-01-23T12:51:56;14.30;;;11.40;;
7074;SDS011;3578;51.568;6.932;2023-01-23T12:54:30;17.07;;;11.00;;
7074;SDS011;3578;51.568;6.932;2023-01-23T12:57:03;14.33;;;10.70;;
7074;SDS011;3578;51.568;6.932;2023-01-23T12:59:36;12.50;;;11.20;;
7074;SDS011;3578;51.568;6.932;2023-01-23T13:02:28;17.03;;;10.83;;
7074;SDS011;3578;51.568;6.932;2023-01-23T13:05:07;11.93;;;10.47;;
7074;SDS011;3578;51.568;6.932;2023-01-23T13:07:46;11.97;;;10.73;;
7074;SDS011;3578;51.568;6.932;2023-01-23T13:10:30;11.80;;;10.63;;
7074;SDS011;3578;51.568;6.932;2023-01-23T13:13:38;19.40;;;11.17;;
7074;SDS011;3578;51.568;6.932;2023-01-23T13:16:09;12.10;;;11.00;;
7074;SDS011;3578;51.568;6.932;2023-01-23T13:18:40;11.20;;;10.10;;
7074;SDS011;3578;51.568;6.932;2023-01-23T13:21:35;13.13;;;11.83;;
7074;SDS011;3578;51.568;6.932;2023-01-23T13:24:26;12.07;;;10.80;;
7074;SDS011;3578;51.568;6.932;2023-01-23T13:27:39;12.80;;;11.43;;
7074;SDS011;3578;51.568;6.932;2023-01-23T13:45:25;17.40;;;12.47;;
7074;SDS011;3578;51.568;6.932;2023-01-23T13:48:00;12.33;;;11.23;;
7074;SDS011;3578;51.568;6.932;2023-01-23T13:51:23;15.43;;;13.20;;
7074;SDS011;3578;51.568;6.932;2023-01-23T13:53:50;14.50;;;12.33;;
7074;SDS011;3578;51.568;6.932;2023-01-23T13:56:37;15.20;;;12.17;;
7074;SDS011;3578;51.568;6.932;2023-01-23T13:59:15;15.40;;;12.10;;
7074;SDS011;3578;51.568;6.932;2023-01-23T14:01:54;12.30;;;11.20;;
7074;SDS011;3578;51.568;6.932;2023-01-23T14:04:54;12.37;;;11.17;;
7074;SDS011;3578;51.568;6.932;2023-01-23T14:07:39;13.93;;;12.63;;
7074;SDS011;3578;51.568;6.932;2023-01-23T14:10:14;15.47;;;13.90;;
7074;SDS011;3578;51.568;6.932;2023-01-23T14:12:48;15.20;;;13.70;;
7074;SDS011;3578;51.568;6.932;2023-01-23T14:15:20;13.37;;;12.07;;
7074;SDS011;3578;51.568;6.932;2023-01-23T14:18:17;14.20;;;12.70;;
7074;SDS011;3578;51.568;6.932;2023-01-23T14:20:52;14.60;;;13.20;;
7074;SDS011;3578;51.568;6.932;2023-01-23T14:23:27;14.97;;;13.30;;
7074;SDS011;3578;51.568;6.932;2023-01-23T14:26:00;14.17;;;12.40;;
7074;SDS011;3578;51.568;6.932;2023-01-23T14:28:28;14.87;;;13.43;;
7074;SDS011;3578;51.568;6.932;2023-01-23T14:30:58;17.83;;;14.10;;
7074;SDS011;3578;51.568;6.932;2023-01-23T14:33:36;14.27;;;12.87;;
7074;SDS011;3578;51.568;6.932;2023-01-23T14:36:10;12.80;;;11.70;;
7074;SDS011;3578;51.568;6.932;2023-01-23T14:38:42;13.77;;;12.17;;
7074;SDS011;3578;51.568;6.932;2023-01-23T14:41:12;17.30;;;13.00;;
7074;SDS011;3578;51.568;6.932;2023-01-23T14:43:40;14.27;;;11.83;;
7074;SDS011;3578;51.568;6.932;2023-01-23T14:46:11;13.53;;;11.53;;
7074;SDS011;3578;51.568;6.932;2023-01-23T14:48:43;12.40;;;11.20;;
7074;SDS011;3578;51.568;6.932;2023-01-23T14:51:16;13.43;;;11.17;;
7074;SDS011;3578;51.568;6.932;2023-01-23T14:53:51;29.03;;;12.90;;
7074;SDS011;3578;51.568;6.932;2023-01-23T14:56:21;14.20;;;11.57;;
7074;SDS011;3578;51.568;6.932;2023-01-23T14:58:55;23.47;;;13.00;;
7074;SDS011;3578;51.568;6.932;2023-01-23T15:01:24;13.10;;;11.83;;
7074;SDS011;3578;51.568;6.932;2023-01-23T15:03:59;35.03;;;13.30;;
7074;SDS011;3578;51.568;6.932;2023-01-23T15:06:28;26.23;;;13.43;;
7074;SDS011;3578;51.568;6.932;2023-01-23T15:09:10;19.93;;;12.53;;
7074;SDS011;3578;51.568;6.932;2023-01-23T15:11:42;17.17;;;13.20;;
7074;SDS011;3578;51.568;6.932;2023-01-23T15:14:19;17.00;;;13.80;;
7074;SDS011;3578;51.568;6.932;2023-01-23T15:16:50;13.97;;;12.27;;
7074;SDS011;3578;51.568;6.932;2023-01-23T15:19:26;13.83;;;12.43;;
7074;SDS011;3578;51.568;6.932;2023-01-23T15:22:04;15.10;;;13.60;;
7074;SDS011;3578;51.568;6.932;2023-01-23T15:24:34;14.83;;;13.03;;
7074;SDS011;3578;51.568;6.932;2023-01-23T15:27:03;14.80;;;12.93;;
7074;SDS011;3578;51.568;6.932;2023-01-23T15:29:47;15.27;;;13.70;;
7074;SDS011;3578;51.568;6.932;2023-01-23T15:32:15;13.47;;;12.00;;
7074;SDS011;3578;51.568;6.932;2023-01-23T15:34:50;13.73;;;12.33;;
7074;SDS011;3578;51.568;6.932;2023-01-23T15:37:22;12.43;;;11.23;;